Terminal Aerodrome Forecast
Issued by NWS Duluth, MN

Home | Current Version | Previous Version | Text Only | Print | Product List | Glossary On
Versions: 1 2 3 4 5 6 7 8 9 10 11 12 13 14 15 16 17 18 19 20 21 22 23 24 25 26 27 28 29
000
FTUS43 KDLH 241742
TAFDLH
TAF
KDLH 241742Z 2418/2518 02014G20KT P6SM FEW020 BKN110
     FM242000 02012G18KT P6SM FEW020 OVC110
     FM250500 35015G21KT P6SM SCT025 BKN035
     FM251500 33015G22KT P6SM SKC=

USA.gov is the U.S. government's official web portal to all federal, state and local government web resources and services.